KMWH/MWH METAR and TAF weather

Enter ICAO airport designator
Station Type Date Time Source
KMWH METAR 2022/11/30 10:52 UTC NOAA

KMWH 301052Z AUTO 32007KT 2 1/2SM -SN BR OVC009 M04/M06 A2960 RMK AO2 SLP040 P0002 T10441056


Station Type Date Time Source
KMWH Decoded METAR 2022/11/30 10:52 UTC NOAA

GRANT COUNTY AIRPORT, WA, United States (KMWH) 47-12N 119-19W 362M
Nov 30, 2022 - 05:52 AM EST / 2022.11.30 1052 UTC
Wind: from the NW (320 degrees) at 8 MPH (7 KT):0
Visibility: 2 1/2 mile(s):0
Sky conditions: overcast
Weather: light snow; mist
Precipitation last hour: 0.02 inches
Temperature: 24.1 F (-4.4 C)
Windchill: 15 F (-9 C):1
Dew Point: 21.9 F (-5.6 C)
Relative Humidity: 91%
Pressure (altimeter): 29.6 in. Hg (1002 hPa)
ob: KMWH 301052Z AUTO 32007KT 2 1/2SM -SN BR OVC009 M04/M06 A2960 RMK AO2 SLP040 P0002 T10441056
cycle: 11

Station Type Date Time Source
KMWH TAF 2022/11/30 06:45 UTC NOAA

TAF KMWH 300542Z 3006/0106 02005KT 1/2SM SN FZFG OVC015
FM301300 16005KT 2SM -SN BR SCT005 OVC015
FM301600 15005KT 5SM BR OVC013
FM302000 27005KT 6SM BR BKN015

Example: see airport list